Springfield Beckley Municipal Airport
KSGH : now visible

Airfield :











YOU CAN JOIN US ON...

 
LOGIN :

Register | Disclaimer

   EN    FR    IT 

 









Legend :    VFR   Marginal VFR   IFR   Intensive IFR   Very Intensive IFR
Visi :
Ceiling :
>= 8 km
>= 3000ft
5 to 8 km
1000 to 3000 ft
1500m to 5 km
500 to 1000 ft
800 to 1500m
200 to 500 ft
< 800m
< 200 ft
Symbols :   Thunderstorms  Fog  Heavy snow  Heavy precipitations  Wind > 20 kt






- Airport Elevation : 1051 ft


KSGH - Springfield Beckley Municipal

CURRENT METAR :
  • 211528Z AUTO 14016G23KT 10SM SCT013 16/14 A2985 RMK AO2

EXPIRED METARs :
  • 211456Z AUTO 14017G21KT 10SM BKN011 15/14 A2986 RMK AO2 RAE03 SLP109 P0000 60000 T01500144 58018
  • 211434Z AUTO 14016KT 10SM BKN011 16/15 A2986 RMK AO2 RAE03 P0000
  • 211406Z AUTO 13012KT 10SM BKN007 15/15 A2986 RMK AO2 RAE03 CIG 005V012 PRESFR P0000
  • 211356Z AUTO 14012KT 10SM -RA BKN005 BKN010 15/15 A2988 RMK AO2 RAB33 SLP116 P0000 T01500150
  • 211323Z AUTO 13011KT 10SM OVC005 14/14 A2990 RMK AO2 CIG 003V008
  • 211256Z AUTO 14012KT 10SM OVC003 13/13 A2991 RMK AO2 RAB1158E42 SLP129 P0000 T01330133

TAF N/A



MET'MAP, your aeronautical weather chart ! - Copyright ORBIFLY December 2007 - Disclaimer

ORBIFLY MET'MAP TEAM :

Programming & Development : Alexandra Zaïnal
Concept & Development : Baudouin d'Aumeries
Co-Development & Prog : Marc-Olivier Méhu
Technical & hardware support : Manuel Goepfert

Contact : metmap@orbifly.com




SOURCES & CREDITS :

   NOAA       Earth
Advisory